Portada
METAR-TAF:

METAR-TAF

Aeroports :

Hafar Al-Batin, Aràbia Saudita

latitud: 27-54N, longitud: 045-32E, altitud: 413 m

METAR: manca

Hora: 01:43 (22:43 UTC)

Pronòstic

L'informe es va fer fa 17 hores i 43 minuts, a les 05:00 UTC
Pronòstic vàlid del 13 a les 06 UTC al 13 a les 20 UTC
Vent 8 kt del Sud
Visibilitat: 7000 m
Escasses núvols a una alçada de 4000 ft
Núvols disperses a una alçada de 10000 ft
Probabilitat 30% :
Temporalment
l' 13 a les 08 UTC al 13 a les 18 UTC
Vent 20 kt amb direcció variable
Visibilitat: 3000 m
Escasses núvols a una alçada de 3500 ft, Cumulonimbus.
Núvols disperses a una alçada de 4000 ft
torb alta de pols, tempesta, pluja

TAF: OEKK 130500Z 1306/1320 18008KT 7000 FEW040 SCT100 PROB30 TEMPO 1308/1318 VRB20KT 3000 BLDU TSRA FEW035CB SCT040

Observacions i pronòstics meteorològics de més de 4000 aeroports (METAR i TAF).

Les estacions disponibles són els punts grocs i vermells al mapa.

Posi el ratolí al punt desitjat per veure el nom de l'estació.

Feu clic per veure les observacions i els pronòstics meteorològics.

Per canviar el mapa: feu clic els botons verds amb una creu de color negre per apropar; al botó verd amb un guió per allunyar la imatge; o en les fletxes verdes per a mapes adjacents.


METAR-TAF: